Terminal Aerodrome Forecast
Issued by NWS

Home | Current Version | Previous Version | Text Only | Print | Product List | Glossary On
Versions: 1 2 3 4 5 6 7 8 9 10 11 12 13 14 15 16 17 18 19 20 21 22 23 24 25 26 27 28 29 30 31 32 33 34 35 36 37 38 39
000
FTUS41 KRNK 251722
TAFLWB
TAF
KLWB 251722Z 2518/2618 23003KT P6SM BKN200
     FM252100 18003KT P6SM OVC050
     FM260400 09003KT 5SM -RA BR OVC025
     FM260700 VRB03KT 3/4SM -SN BR SCT003 OVC015
     FM261300 07003KT 2SM -RASN OVC005=

USA.gov is the U.S. government's official web portal to all federal, state and local government web resources and services.